createdAt,value
2022-09-06T00:00:26.651Z,22.73
2022-09-06T00:02:54.442Z,22.75
2022-09-06T00:05:21.864Z,22.68
2022-09-06T00:07:48.720Z,22.75
2022-09-06T00:10:16.000Z,22.72
2022-09-06T00:12:43.009Z,22.82
2022-09-06T00:15:10.393Z,22.81
2022-09-06T00:17:37.384Z,22.72
2022-09-06T00:20:08.537Z,22.68
2022-09-06T00:22:36.644Z,22.70
2022-09-06T00:25:06.493Z,22.72
2022-09-06T00:27:34.478Z,22.67
2022-09-06T00:30:01.404Z,22.64
2022-09-06T00:32:28.539Z,22.65
2022-09-06T00:34:55.428Z,22.44
2022-09-06T00:37:22.253Z,22.51
2022-09-06T00:39:49.157Z,22.62
2022-09-06T00:42:16.079Z,22.37
2022-09-06T00:44:42.925Z,22.51
2022-09-06T00:47:09.830Z,22.04
2022-09-06T00:49:44.839Z,22.26
2022-09-06T00:52:15.762Z,22.30
2022-09-06T00:54:43.716Z,22.06
2022-09-06T00:57:11.782Z,22.45
2022-09-06T00:59:40.465Z,22.49
2022-09-06T01:02:09.342Z,22.57
2022-09-06T01:04:40.210Z,22.57
2022-09-06T01:07:35.510Z,22.44
2022-09-06T01:10:28.359Z,22.41
2022-09-06T01:13:36.885Z,22.34
2022-09-06T01:16:37.750Z,22.36
2022-09-06T01:19:36.063Z,22.37
2022-09-06T01:22:14.430Z,22.57
2022-09-06T01:25:03.886Z,22.52
2022-09-06T01:28:01.442Z,22.37
2022-09-06T01:30:28.926Z,22.41
2022-09-06T01:33:16.190Z,22.58
2022-09-06T01:36:04.949Z,22.84
2022-09-06T01:38:31.906Z,23.05
2022-09-06T01:40:58.759Z,23.26
2022-09-06T01:43:32.126Z,23.36
2022-09-06T01:46:25.891Z,23.45
2022-09-06T01:49:24.308Z,23.40
2022-09-06T01:52:09.561Z,23.31
2022-09-06T01:55:19.783Z,23.29
2022-09-06T01:58:15.430Z,23.26
2022-09-06T02:00:50.242Z,23.18
2022-09-06T02:03:28.788Z,22.92
2022-09-06T02:06:03.408Z,23.03
2022-09-06T02:08:41.084Z,22.85
2022-09-06T02:11:09.379Z,22.48
2022-09-06T02:13:49.839Z,22.60
2022-09-06T02:16:21.992Z,22.71
2022-09-06T02:18:56.115Z,22.78
2022-09-06T02:21:30.485Z,22.86
2022-09-06T02:24:01.114Z,22.83
2022-09-06T02:26:33.126Z,22.79
2022-09-06T02:29:00.410Z,22.86
2022-09-06T02:31:37.869Z,22.83
2022-09-06T02:34:05.810Z,22.88
2022-09-06T02:36:35.807Z,22.76
2022-09-06T02:39:02.913Z,22.80
2022-09-06T02:41:30.981Z,22.67
2022-09-06T02:43:57.922Z,22.69
2022-09-06T02:46:24.939Z,22.73
2022-09-06T02:48:52.299Z,22.68
2022-09-06T02:51:19.495Z,22.73
2022-09-06T02:53:46.762Z,22.55
2022-09-06T02:56:13.621Z,22.71
2022-09-06T02:58:40.484Z,22.55
2022-09-06T03:01:07.531Z,22.57
2022-09-06T03:03:34.621Z,22.60
2022-09-06T03:06:01.679Z,22.69
2022-09-06T03:08:33.328Z,22.80
2022-09-06T03:11:01.209Z,22.82
2022-09-06T03:13:28.735Z,22.75
2022-09-06T03:15:59.529Z,22.62
2022-09-06T03:18:29.167Z,22.50
2022-09-06T03:20:57.907Z,22.37
2022-09-06T03:23:27.818Z,22.38
2022-09-06T03:25:55.416Z,22.38
2022-09-06T03:28:23.108Z,22.37
2022-09-06T03:30:51.980Z,22.15
2022-09-06T03:33:20.414Z,22.08
2022-09-06T03:36:03.079Z,22.20
2022-09-06T03:38:30.757Z,22.06
2022-09-06T03:40:58.592Z,22.12
2022-09-06T03:43:27.323Z,21.74
2022-09-06T03:45:57.571Z,21.45
2022-09-06T03:48:28.633Z,21.65
2022-09-06T03:50:58.776Z,21.97
2022-09-06T03:53:27.943Z,21.67
2022-09-06T03:55:58.078Z,21.90
2022-09-06T03:58:30.181Z,21.96
2022-09-06T04:01:07.656Z,21.94
2022-09-06T04:03:35.624Z,21.85
2022-09-06T04:06:03.825Z,21.89
2022-09-06T04:08:31.839Z,21.87
2022-09-06T04:10:59.562Z,21.83
2022-09-06T04:13:28.678Z,21.78
2022-09-06T04:15:55.803Z,21.79
2022-09-06T04:18:23.497Z,21.75
2022-09-06T04:20:53.154Z,21.77
2022-09-06T04:23:20.680Z,21.66
2022-09-06T04:25:53.177Z,21.63
2022-09-06T04:28:21.618Z,21.38
2022-09-06T04:31:04.951Z,21.36
2022-09-06T04:33:35.304Z,21.32
2022-09-06T04:36:05.669Z,21.46
2022-09-06T04:38:39.928Z,21.35
2022-09-06T04:41:08.307Z,21.31
2022-09-06T04:43:35.517Z,21.30
2022-09-06T04:46:29.941Z,21.44
2022-09-06T04:48:58.221Z,21.35
2022-09-06T04:51:25.620Z,21.30
2022-09-06T04:53:52.883Z,21.28
2022-09-06T04:56:22.405Z,21.26
2022-09-06T04:58:51.178Z,21.09
2022-09-06T05:01:18.594Z,21.06
2022-09-06T05:03:45.491Z,21.08
2022-09-06T05:06:24.006Z,20.95
2022-09-06T05:08:51.588Z,20.88
2022-09-06T05:11:19.642Z,20.85
2022-09-06T05:13:47.532Z,20.89
2022-09-06T05:16:14.530Z,20.94
2022-09-06T05:18:42.352Z,20.80
2022-09-06T05:21:09.400Z,20.82
2022-09-06T05:23:36.617Z,20.92
2022-09-06T05:26:03.632Z,21.11
2022-09-06T05:28:30.773Z,21.23
2022-09-06T05:31:08.126Z,21.60
2022-09-06T05:33:35.039Z,22.23
2022-09-06T05:36:03.754Z,22.52
2022-09-06T05:38:30.904Z,23.26
2022-09-06T05:40:58.057Z,23.91
2022-09-06T05:43:24.951Z,24.74
2022-09-06T05:45:51.942Z,25.41
2022-09-06T05:48:19.342Z,25.20
2022-09-06T05:50:46.286Z,25.26
2022-09-06T05:53:13.112Z,24.89
2022-09-06T05:55:42.885Z,24.86
2022-09-06T05:58:10.075Z,25.11
2022-09-06T06:00:36.911Z,25.26
2022-09-06T06:03:03.740Z,25.67
2022-09-06T06:05:30.578Z,25.35
2022-09-06T06:07:58.870Z,24.69
2022-09-06T06:10:25.859Z,24.64
2022-09-06T06:12:52.689Z,24.70
2022-09-06T06:15:19.542Z,24.75
2022-09-06T06:17:46.419Z,25.24
2022-09-06T06:20:13.268Z,26.63
2022-09-06T06:22:40.157Z,28.20
2022-09-06T06:25:07.479Z,28.99
2022-09-06T06:27:35.308Z,28.88
2022-09-06T06:30:02.159Z,29.36
2022-09-06T06:32:29.050Z,28.40
2022-09-06T06:34:55.901Z,28.08
2022-09-06T06:37:22.845Z,27.55
2022-09-06T06:39:49.782Z,26.96
2022-09-06T06:42:16.754Z,26.06
2022-09-06T06:44:43.668Z,26.68
2022-09-06T06:47:10.583Z,28.88
2022-09-06T06:49:37.447Z,31.16
2022-09-06T06:52:04.328Z,32.78
2022-09-06T06:54:31.205Z,31.92
2022-09-06T06:56:58.060Z,32.06
2022-09-06T06:59:24.949Z,31.52
2022-09-06T07:01:52.400Z,30.38
2022-09-06T07:04:19.364Z,29.35
2022-09-06T07:12:30.274Z,28.85
2022-09-06T07:14:57.138Z,29.85
2022-09-06T07:17:23.982Z,29.44
2022-09-06T07:22:39.205Z,29.16
2022-09-06T07:25:07.429Z,28.59
2022-09-06T07:27:50.325Z,27.52
2022-09-06T07:30:19.756Z,27.29
2022-09-06T07:32:46.830Z,27.19
2022-09-06T07:35:13.924Z,26.62
2022-09-06T07:37:40.938Z,26.71
2022-09-06T07:40:08.932Z,26.56
2022-09-06T07:42:36.809Z,27.29
2022-09-06T07:45:05.354Z,27.96
2022-09-06T07:53:10.160Z,27.91
2022-09-06T07:55:40.927Z,27.93
2022-09-06T07:58:07.788Z,28.38
2022-09-06T08:00:34.725Z,28.46
2022-09-06T08:03:01.626Z,29.03
2022-09-06T08:11:02.665Z,28.19
2022-09-06T08:13:29.807Z,28.08
2022-09-06T08:16:08.001Z,28.17
2022-09-06T08:18:36.239Z,30.31
2022-09-06T08:21:12.835Z,33.92
2022-09-06T08:23:51.728Z,35.84
2022-09-06T08:26:23.540Z,36.12
2022-09-06T08:29:00.205Z,37.17
2022-09-06T08:31:29.599Z,39.78
2022-09-06T08:33:58.198Z,40.87
2022-09-06T08:36:29.442Z,41.95
2022-09-06T08:38:57.926Z,41.53
2022-09-06T08:41:45.005Z,42.79
2022-09-06T08:47:13.361Z,45.89
2022-09-06T08:49:46.085Z,45.60
2022-09-06T08:52:41.756Z,44.68
2022-09-06T08:55:39.575Z,45.28
2022-09-06T08:59:09.088Z,44.40
2022-09-06T09:02:10.429Z,43.47
2022-09-06T09:04:54.392Z,43.13
2022-09-06T09:07:47.956Z,43.15
2022-09-06T09:10:21.512Z,45.09
2022-09-06T09:12:49.805Z,46.33
2022-09-06T09:15:20.596Z,48.37
2022-09-06T09:17:50.495Z,49.51
2022-09-06T09:20:17.549Z,50.65
2022-09-06T09:22:45.131Z,51.20
2022-09-06T09:25:23.768Z,52.20
2022-09-06T09:27:57.797Z,53.64
2022-09-06T09:33:29.804Z,55.11
2022-09-06T09:36:01.772Z,55.64
2022-09-06T09:38:34.930Z,55.41
2022-09-06T09:41:07.668Z,55.47
2022-09-06T09:43:42.575Z,54.99
2022-09-06T09:46:24.380Z,53.69
2022-09-06T09:49:22.352Z,52.45
2022-09-06T09:52:13.211Z,53.85
2022-09-06T09:54:44.853Z,53.49
2022-09-06T09:57:17.831Z,52.69
2022-09-06T09:59:50.598Z,52.88
2022-09-06T10:02:30.880Z,51.88
2022-09-06T10:05:17.512Z,51.65
2022-09-06T10:07:55.049Z,51.94
2022-09-06T10:10:32.821Z,54.33
2022-09-06T10:13:24.277Z,54.41
2022-09-06T10:15:54.083Z,54.97
2022-09-06T10:18:20.858Z,54.31
2022-09-06T10:20:56.042Z,54.35
2022-09-06T10:27:04.367Z,47.26
2022-09-06T10:29:39.886Z,45.98
2022-09-06T10:32:39.221Z,43.21
2022-09-06T10:35:26.795Z,40.94
2022-09-06T10:38:05.482Z,38.99
2022-09-06T10:41:03.354Z,35.56
2022-09-06T10:44:08.383Z,35.13
2022-09-06T10:46:36.651Z,34.13
2022-09-06T10:49:03.570Z,33.97
2022-09-06T10:51:50.062Z,33.15
2022-09-06T10:54:24.450Z,32.56
2022-09-06T10:56:58.854Z,32.36
2022-09-06T10:59:38.777Z,32.03
2022-09-06T11:02:38.317Z,31.83
2022-09-06T11:11:14.195Z,31.11
2022-09-06T11:13:41.079Z,30.97
2022-09-06T11:16:23.039Z,30.81
2022-09-06T11:19:07.840Z,30.16
2022-09-06T11:22:10.230Z,30.47
2022-09-06T11:24:58.123Z,30.33
2022-09-06T11:27:30.836Z,30.12
2022-09-06T11:30:00.796Z,29.60
2022-09-06T11:32:48.754Z,29.35
2022-09-06T11:35:34.865Z,29.33
2022-09-06T11:38:23.735Z,29.44
2022-09-06T11:41:01.768Z,29.34
2022-09-06T11:43:52.789Z,29.37
2022-09-06T11:46:34.991Z,29.34
2022-09-06T11:49:07.758Z,29.42
2022-09-06T11:51:41.870Z,29.33
2022-09-06T11:54:25.211Z,29.50
2022-09-06T11:57:13.553Z,29.32
2022-09-06T11:59:56.235Z,29.47
2022-09-06T12:02:41.333Z,29.88
2022-09-06T12:05:20.710Z,29.92
2022-09-06T12:08:24.639Z,29.95
2022-09-06T12:11:22.761Z,29.69
2022-09-06T12:14:34.163Z,30.09
2022-09-06T12:17:00.927Z,30.10
2022-09-06T12:19:49.952Z,29.93
2022-09-06T12:22:37.642Z,30.23
2022-09-06T12:25:40.998Z,30.29
2022-09-06T12:28:27.055Z,30.23
2022-09-06T12:30:54.083Z,30.21
2022-09-06T12:33:38.766Z,30.22
2022-09-06T12:36:22.627Z,30.22
2022-09-06T12:39:12.028Z,30.04
2022-09-06T12:41:45.589Z,29.97
2022-09-06T12:44:15.283Z,29.97
2022-09-06T12:46:50.688Z,30.17
2022-09-06T12:49:23.448Z,30.30
2022-09-06T12:51:50.862Z,30.27
2022-09-06T12:54:26.525Z,30.25
2022-09-06T12:57:12.350Z,30.10
2022-09-06T12:59:57.190Z,29.80
2022-09-06T13:02:41.283Z,29.40
2022-09-06T13:05:12.351Z,29.30
2022-09-06T13:07:50.112Z,29.41
2022-09-06T13:10:19.872Z,29.60
2022-09-06T13:12:50.423Z,29.98
2022-09-06T13:15:29.015Z,29.94
2022-09-06T13:18:36.405Z,30.07
2022-09-06T13:21:15.733Z,30.16
2022-09-06T13:23:47.515Z,30.49
2022-09-06T13:26:14.997Z,30.74
2022-09-06T13:28:41.969Z,30.81
2022-09-06T13:31:18.057Z,30.59
2022-09-06T13:33:46.441Z,30.31
2022-09-06T13:36:32.014Z,30.32
2022-09-06T13:39:00.062Z,30.38
2022-09-06T13:41:26.804Z,30.23
2022-09-06T13:44:19.835Z,30.55
2022-09-06T13:46:46.980Z,30.49
2022-09-06T13:49:14.448Z,29.61
2022-09-06T13:51:43.303Z,30.15
2022-09-06T13:54:14.104Z,30.17
2022-09-06T13:56:44.526Z,30.27
2022-09-06T13:59:12.283Z,30.19
2022-09-06T14:01:42.307Z,30.18
2022-09-06T14:04:13.699Z,30.46
2022-09-06T14:06:40.637Z,30.25
2022-09-06T14:09:09.010Z,30.45
2022-09-06T14:11:37.099Z,30.33
2022-09-06T14:14:05.162Z,30.25
2022-09-06T14:16:34.074Z,30.03
2022-09-06T14:19:00.949Z,30.07
2022-09-06T14:21:27.849Z,29.86
2022-09-06T14:23:54.743Z,29.76
2022-09-06T14:26:23.043Z,29.86
2022-09-06T14:28:50.526Z,29.77
2022-09-06T14:31:25.922Z,30.01
2022-09-06T14:33:55.057Z,29.70
2022-09-06T14:36:26.227Z,29.58
2022-09-06T14:38:53.830Z,29.02
2022-09-06T14:41:21.065Z,29.58
2022-09-06T14:43:51.688Z,28.81
2022-09-06T14:46:20.098Z,28.80
2022-09-06T14:48:47.157Z,28.80
2022-09-06T14:51:23.792Z,28.81
2022-09-06T14:54:02.485Z,28.68
2022-09-06T14:56:30.284Z,28.61
2022-09-06T14:58:57.829Z,28.47
2022-09-06T15:01:31.898Z,28.62
2022-09-06T15:04:04.086Z,28.58
2022-09-06T15:06:34.774Z,28.54
2022-09-06T15:09:01.626Z,28.40
2022-09-06T15:11:39.291Z,28.25
2022-09-06T15:14:13.438Z,28.09
2022-09-06T15:16:40.342Z,27.99
2022-09-06T15:19:08.784Z,27.94
2022-09-06T15:21:35.923Z,27.92
2022-09-06T15:24:03.247Z,27.80
2022-09-06T15:26:30.867Z,27.75
2022-09-06T15:28:57.742Z,27.71
2022-09-06T15:31:25.053Z,27.72
2022-09-06T15:33:52.834Z,27.72
2022-09-06T15:36:21.793Z,27.69
2022-09-06T15:38:52.260Z,27.54
2022-09-06T15:41:26.246Z,27.42
2022-09-06T15:44:00.738Z,27.38
2022-09-06T15:46:38.320Z,27.41
2022-09-06T15:49:08.350Z,27.37
2022-09-06T15:51:37.813Z,27.13
2022-09-06T15:54:06.859Z,27.12
2022-09-06T15:56:34.935Z,27.19
2022-09-06T15:59:01.985Z,27.22
2022-09-06T16:01:29.029Z,27.17
2022-09-06T16:04:03.706Z,27.28
2022-09-06T16:06:37.544Z,27.29
2022-09-06T16:09:10.834Z,27.24
2022-09-06T16:11:37.964Z,27.23
2022-09-06T16:14:07.207Z,27.20
2022-09-06T16:16:35.789Z,27.12
2022-09-06T16:19:03.788Z,27.22
2022-09-06T16:21:34.228Z,27.17
2022-09-06T16:24:05.069Z,27.18
2022-09-06T16:26:39.241Z,27.19
2022-09-06T16:29:08.170Z,27.18
2022-09-06T16:31:40.028Z,27.25
2022-09-06T16:34:09.782Z,27.28
2022-09-06T16:36:37.146Z,27.31
2022-09-06T16:39:05.479Z,27.36
2022-09-06T16:41:42.542Z,27.37
2022-09-06T16:44:16.046Z,27.42
2022-09-06T16:46:48.538Z,27.49
2022-09-06T16:49:18.992Z,27.58
2022-09-06T16:51:47.834Z,27.59
2022-09-06T16:54:15.827Z,27.65
2022-09-06T16:56:43.414Z,27.68
2022-09-06T16:59:12.200Z,27.67
2022-09-06T17:01:41.854Z,27.61
2022-09-06T17:04:09.678Z,27.53
2022-09-06T17:06:44.018Z,27.54
2022-09-06T17:09:13.558Z,27.38
2022-09-06T17:11:40.508Z,27.24
2022-09-06T17:14:08.344Z,27.09
2022-09-06T17:16:53.818Z,27.21
2022-09-06T17:19:21.004Z,26.96
2022-09-06T17:21:47.913Z,26.93
2022-09-06T17:24:15.453Z,26.88
2022-09-06T17:26:42.486Z,26.68
2022-09-06T17:29:10.383Z,26.57
2022-09-06T17:31:38.193Z,26.56
2022-09-06T17:34:07.762Z,26.56
2022-09-06T17:36:35.574Z,26.45
2022-09-06T17:39:06.814Z,26.44
2022-09-06T17:41:43.174Z,26.28
2022-09-06T17:44:11.283Z,26.10
2022-09-06T17:46:47.755Z,26.17
2022-09-06T17:49:24.587Z,26.17
2022-09-06T17:51:52.046Z,26.10
2022-09-06T17:54:19.219Z,26.08
2022-09-06T17:56:46.231Z,26.05
2022-09-06T17:59:15.445Z,26.02
2022-09-06T18:01:44.630Z,25.94
2022-09-06T18:04:13.597Z,25.93
2022-09-06T18:06:43.208Z,25.85
2022-09-06T18:09:14.782Z,25.76
2022-09-06T18:11:45.509Z,25.77
2022-09-06T18:14:20.547Z,25.87
2022-09-06T18:16:50.425Z,25.84
2022-09-06T18:19:18.049Z,25.65
2022-09-06T18:21:47.373Z,25.66
2022-09-06T18:24:14.996Z,25.60
2022-09-06T18:26:42.997Z,25.57
2022-09-06T18:29:16.532Z,25.56
2022-09-06T18:31:44.317Z,25.52
2022-09-06T18:34:12.334Z,25.45
2022-09-06T18:36:39.932Z,25.44
2022-09-06T18:39:07.105Z,25.23
2022-09-06T18:41:52.919Z,25.26
2022-09-06T18:44:19.859Z,25.16
2022-09-06T18:46:47.475Z,25.17
2022-09-06T18:49:15.488Z,25.12
2022-09-06T18:51:43.311Z,24.97
2022-09-06T18:54:10.867Z,25.01
2022-09-06T18:56:38.419Z,24.90
2022-09-06T18:59:05.996Z,24.82
2022-09-06T19:01:34.868Z,24.86
2022-09-06T19:04:03.402Z,24.70
2022-09-06T19:06:32.604Z,24.64
2022-09-06T19:09:05.024Z,24.78
2022-09-06T19:11:31.924Z,24.63
2022-09-06T19:13:59.211Z,24.61
2022-09-06T19:16:28.556Z,24.60
2022-09-06T19:18:56.874Z,24.60
2022-09-06T19:21:25.469Z,24.61
2022-09-06T19:24:07.995Z,24.50
2022-09-06T19:26:38.573Z,24.57
2022-09-06T19:29:09.136Z,24.46
2022-09-06T19:31:37.992Z,24.33
2022-09-06T19:34:05.511Z,24.31
2022-09-06T19:36:32.873Z,24.27
2022-09-06T19:39:07.511Z,24.22
2022-09-06T19:41:39.081Z,24.29
2022-09-06T19:44:08.473Z,24.20
2022-09-06T19:46:36.439Z,24.11
2022-09-06T19:49:04.912Z,24.15
2022-09-06T19:51:33.042Z,24.14
2022-09-06T19:54:00.408Z,24.08
2022-09-06T19:56:34.229Z,24.07
2022-09-06T19:59:05.060Z,23.97
2022-09-06T20:01:33.754Z,24.07
2022-09-06T20:04:03.695Z,24.02
2022-09-06T20:06:31.678Z,24.00
2022-09-06T20:09:00.367Z,23.98
2022-09-06T20:11:30.396Z,23.96
2022-09-06T20:13:57.647Z,23.91
2022-09-06T20:16:25.568Z,23.84
2022-09-06T20:18:54.877Z,23.84
2022-09-06T20:21:21.874Z,23.80
2022-09-06T20:23:54.514Z,23.77
2022-09-06T20:26:23.774Z,23.73
2022-09-06T20:28:59.676Z,23.71
2022-09-06T20:31:28.968Z,23.77
2022-09-06T20:33:57.964Z,23.63
2022-09-06T20:36:25.208Z,23.67
2022-09-06T20:38:52.218Z,23.73
2022-09-06T20:41:23.443Z,23.59
2022-09-06T20:43:53.368Z,23.48
2022-09-06T20:46:23.695Z,23.52
2022-09-06T20:48:51.796Z,23.60
2022-09-06T20:51:21.582Z,23.52
2022-09-06T20:53:56.428Z,23.42
2022-09-06T20:56:30.037Z,23.42
2022-09-06T20:59:00.664Z,23.40
2022-09-06T21:01:34.251Z,23.27
2022-09-06T21:04:03.484Z,23.29
2022-09-06T21:06:34.372Z,23.26
2022-09-06T21:09:06.777Z,23.12
2022-09-06T21:11:34.422Z,23.04
2022-09-06T21:14:01.621Z,22.95
2022-09-06T21:16:30.362Z,22.94
2022-09-06T21:19:03.697Z,22.98
2022-09-06T21:21:32.621Z,22.93
2022-09-06T21:24:05.371Z,22.87
2022-09-06T21:26:33.173Z,22.81
2022-09-06T21:29:00.456Z,22.71
2022-09-06T21:31:31.428Z,22.70
2022-09-06T21:34:03.311Z,22.82
2022-09-06T21:36:34.755Z,22.65
2022-09-06T21:39:12.741Z,22.63
2022-09-06T21:41:42.226Z,22.62
2022-09-06T21:44:10.484Z,22.58
2022-09-06T21:46:39.360Z,22.42
2022-09-06T21:49:12.912Z,22.37
2022-09-06T21:51:40.421Z,22.38
2022-09-06T21:54:07.563Z,22.43
2022-09-06T21:56:36.678Z,22.38
2022-09-06T21:59:04.848Z,22.35
2022-09-06T22:01:35.216Z,22.32
2022-09-06T22:04:03.433Z,22.27
2022-09-06T22:06:32.796Z,22.22
2022-09-06T22:09:02.780Z,22.12
2022-09-06T22:11:33.084Z,22.13
2022-09-06T22:14:05.156Z,22.08
2022-09-06T22:16:35.237Z,22.09
2022-09-06T22:19:04.770Z,22.07
2022-09-06T22:21:32.865Z,21.96
2022-09-06T22:24:03.413Z,22.01
2022-09-06T22:26:32.624Z,21.98
2022-09-06T22:29:04.435Z,21.98
2022-09-06T22:31:33.070Z,22.02
2022-09-06T22:34:00.511Z,21.79
2022-09-06T22:36:28.392Z,21.72
2022-09-06T22:38:58.862Z,21.68
2022-09-06T22:41:28.300Z,21.52
2022-09-06T22:43:56.007Z,21.58
2022-09-06T22:46:23.488Z,21.47
2022-09-06T22:48:50.574Z,21.54
2022-09-06T22:51:17.648Z,21.59
2022-09-06T22:53:44.827Z,21.59
2022-09-06T22:56:11.823Z,21.56
2022-09-06T22:58:38.721Z,21.53
2022-09-06T23:01:11.895Z,21.63
2022-09-06T23:03:39.075Z,21.46
2022-09-06T23:06:06.257Z,21.31
2022-09-06T23:08:36.021Z,21.45
2022-09-06T23:11:12.812Z,21.51
2022-09-06T23:13:43.986Z,21.43
2022-09-06T23:16:15.184Z,21.57
2022-09-06T23:18:42.757Z,21.49
2022-09-06T23:21:21.204Z,21.52
2022-09-06T23:23:50.946Z,21.37
2022-09-06T23:26:30.726Z,21.27
2022-09-06T23:28:58.562Z,21.27
2022-09-06T23:31:31.250Z,21.13
2022-09-06T23:34:00.572Z,21.06
2022-09-06T23:36:28.382Z,21.04
2022-09-06T23:38:56.337Z,21.13
2022-09-06T23:41:24.268Z,21.14
2022-09-06T23:43:51.114Z,21.12
2022-09-06T23:46:18.314Z,21.26
2022-09-06T23:48:45.683Z,21.27
2022-09-06T23:51:13.399Z,21.24
2022-09-06T23:53:40.469Z,21.37
2022-09-06T23:56:08.191Z,21.43
2022-09-06T23:58:36.031Z,21.38
